Time;durP1;ratioP1;P1;durP2;ratioP2;P2;SDS_P1;SDS_P2;PMS_P1;PMS_P2;Temp;Humidity;BMP_temperature;BMP_pressure;BME280_temperature;BME280_humidity;BME280_pressure;Samples;Min_cycle;Max_cycle;Signal;HPM_P1;HPM_P2
2022/12/28 00:01:23;;;;;;;;;75.33;63.33;;;;;20.96;48.82;95817.97;5004933;28;9530;-66
2022/12/28 00:03:50;;;;;;;;;77.50;65.25;;;;;20.92;49.00;95820.78;5007494;28;9265;-67
2022/12/28 00:06:19;;;;;;;;;69.25;57.75;;;;;20.85;48.91;95816.16;5002199;28;9269;-66
2022/12/28 00:08:47;;;;;;;;;68.00;58.25;;;;;20.81;48.93;95815.41;5005115;28;11506;-66
2022/12/28 00:11:18;;;;;;;;;75.00;63.00;;;;;20.79;48.85;95815.09;5005504;28;9189;-66
2022/12/28 00:14:00;;;;;;;;;77.75;63.50;;;;;20.75;48.86;95811.56;5002821;28;9546;-66
2022/12/28 00:16:28;;;;;;;;;69.50;59.25;;;;;20.70;48.86;95806.50;5003298;28;19433;-66
2022/12/28 00:18:57;;;;;;;;;74.00;62.33;;;;;20.67;48.94;95805.38;5007060;28;8862;-66
2022/12/28 00:21:24;;;;;;;;;76.50;64.00;;;;;20.65;48.74;95806.97;5005459;28;9427;-66
2022/12/28 00:23:53;;;;;;;;;75.00;62.25;;;;;20.63;48.82;95806.63;5004092;28;9739;-66
2022/12/28 00:26:25;;;;;;;;;68.25;56.25;;;;;20.62;48.82;95805.06;5005451;28;10324;-66
2022/12/28 00:28:52;;;;;;;;;69.25;59.25;;;;;20.62;48.79;95793.97;4999433;28;9229;-66
2022/12/28 00:31:29;;;;;;;;;68.25;57.00;;;;;20.60;48.43;95797.16;4995478;28;9680;-66
2022/12/28 00:33:56;;;;;;;;;76.00;63.00;;;;;20.59;48.46;95789.28;5006301;28;8940;-66
2022/12/28 00:36:23;;;;;;;;;71.75;60.25;;;;;20.54;48.56;95791.34;4989744;28;9623;-66
2022/12/28 00:39:10;;;;;;;;;72.00;60.00;;;;;20.56;48.56;95796.44;4977974;28;9216;-66
2022/12/28 00:41:36;;;;;;;;;73.00;63.00;;;;;20.55;48.52;95800.41;4983790;28;9457;-66
2022/12/28 00:44:03;;;;;;;;;77.00;64.00;;;;;20.53;48.54;95800.03;4988450;28;9253;-66
2022/12/28 00:46:30;;;;;;;;;75.67;63.00;;;;;20.51;48.35;95788.63;4988739;28;9441;-66
2022/12/28 00:48:57;;;;;;;;;74.33;62.33;;;;;20.49;48.40;95782.72;4968608;28;9140;-66
2022/12/28 00:51:25;;;;;;;;;74.00;63.25;;;;;20.47;48.47;95772.03;4966758;28;9323;-66
2022/12/28 00:53:52;;;;;;;;;69.00;58.50;;;;;20.48;48.32;95770.06;4966854;28;9025;-66
2022/12/28 00:56:21;;;;;;;;;77.75;64.25;;;;;20.45;48.39;95765.38;4980575;28;9316;-65
2022/12/28 00:58:49;;;;;;;;;73.50;61.50;;;;;20.46;48.48;95761.38;4968095;28;10453;-66
2022/12/28 01:01:19;;;;;;;;;76.50;64.50;;;;;20.46;48.24;95759.41;4987043;28;10770;-66
2022/12/28 01:03:46;;;;;;;;;69.75;59.75;;;;;20.45;48.28;95757.84;4968250;28;9461;-66
2022/12/28 01:06:16;;;;;;;;;76.50;64.00;;;;;20.45;48.27;95755.09;4986739;28;9408;-66
2022/12/28 01:08:42;;;;;;;;;70.25;60.25;;;;;20.45;48.17;95754.28;4970060;28;9535;-66
2022/12/28 01:11:17;;;;;;;;;70.00;59.00;;;;;20.46;48.02;95756.66;4969218;28;9147;-66
2022/12/28 01:13:45;;;;;;;;;70.50;58.00;;;;;20.47;48.03;95754.66;4989786;28;10879;-65
2022/12/28 01:16:27;;;;;;;;;75.25;62.50;;;;;20.44;48.08;95750.75;4984708;28;11028;-66
2022/12/28 01:18:57;;;;;;;;;68.25;58.25;;;;;20.44;48.06;95753.50;4986050;28;10086;-66
2022/12/28 01:21:27;;;;;;;;;71.50;61.50;;;;;20.42;47.96;95750.38;4986501;28;10009;-65
2022/12/28 01:23:57;;;;;;;;;68.25;57.75;;;;;20.42;47.78;95744.06;4968485;28;9386;-66
2022/12/28 01:26:26;;;;;;;;;76.00;64.00;;;;;20.43;47.77;95748.41;4969764;28;9233;-66
2022/12/28 01:28:54;;;;;;;;;77.75;63.75;;;;;20.41;47.72;95746.03;4987638;28;9692;-66
2022/12/28 01:31:22;;;;;;;;;80.00;66.00;;;;;20.40;47.76;95739.72;4968796;28;10856;-66
2022/12/28 01:33:50;;;;;;;;;68.00;58.25;;;;;20.41;47.66;95732.19;4971242;28;8961;-66
2022/12/28 01:36:19;;;;;;;;;76.25;64.00;;;;;20.41;47.58;95734.97;4998954;28;10697;-65
2022/12/28 01:38:50;;;;;;;;;68.75;59.25;;;;;20.39;47.59;95737.38;5006275;28;10491;-66
2022/12/28 01:41:18;;;;;;;;;69.50;58.25;;;;;20.40;47.40;95738.94;5004931;28;9478;-66
2022/12/28 01:43:51;;;;;;;;;73.33;61.00;;;;;20.38;47.32;95739.38;5006726;28;11494;-67
2022/12/28 01:46:31;;;;;;;;;69.25;59.25;;;;;20.36;47.47;95727.16;4988678;28;9526;-66
2022/12/28 01:49:06;;;;;;;;;72.50;61.50;;;;;20.38;47.16;95731.06;5004637;28;8931;-67
2022/12/28 01:51:42;;;;;;;;;67.25;57.00;;;;;20.36;47.22;95741.00;4987443;28;9853;-66
2022/12/28 01:54:10;;;;;;;;;69.25;58.25;;;;;20.35;47.33;95736.66;5005020;28;9335;-66
2022/12/28 01:56:38;;;;;;;;;75.75;63.00;;;;;20.34;47.16;95735.09;5006836;28;10796;-66
2022/12/28 01:59:05;;;;;;;;;76.25;64.00;;;;;20.35;47.09;95736.66;4986433;28;9947;-66
2022/12/28 02:01:35;;;;;;;;;72.50;60.50;;;;;20.35;47.25;95731.88;5005257;28;10735;-66
2022/12/28 02:04:03;;;;;;;;;71.00;61.00;;;;;20.35;47.14;95736.66;5008243;28;8836;-67
2022/12/28 02:06:30;;;;;;;;;76.00;63.50;;;;;20.35;47.36;95739.44;4986653;28;9795;-66
2022/12/28 02:09:05;;;;;;;;;71.00;60.25;;;;;20.35;47.17;95739.44;5004722;28;9573;-66
2022/12/28 02:11:34;;;;;;;;;74.50;62.50;;;;;20.34;47.08;95737.84;4983807;28;9376;-66
2022/12/28 02:14:01;;;;;;;;;76.00;62.25;;;;;20.33;47.42;95741.81;4987171;28;9580;-66
2022/12/28 02:16:28;;;;;;;;;78.00;65.00;;;;;20.32;47.37;95740.25;4987481;28;9682;-66
2022/12/28 02:18:55;;;;;;;;;69.25;59.50;;;;;20.33;47.40;95739.06;4988408;28;9970;-66
2022/12/28 02:21:37;;;;;;;;;77.50;63.50;;;;;20.33;47.38;95737.09;5002406;28;9382;-66
2022/12/28 02:24:19;;;;;;;;;67.25;57.50;;;;;20.30;47.42;95737.91;5006066;28;9542;-66
2022/12/28 02:27:04;;;;;;;;;70.75;60.00;;;;;20.32;47.28;95741.06;5001346;28;9435;-66
2022/12/28 02:29:49;;;;;;;;;73.75;63.00;;;;;20.30;47.41;95737.91;4985818;28;10609;-66
2022/12/28 02:32:38;;;;;;;;;76.75;63.25;;;;;20.29;47.39;95733.59;5003147;28;9543;-66
2022/12/28 02:35:38;;;;;;;;;75.00;63.25;;;;;20.28;47.54;95729.25;4985083;28;10298;-66
2022/12/28 02:38:33;;;;;;;;;70.50;60.00;;;;;20.27;47.63;95727.69;4999500;28;9612;-66
2022/12/28 02:41:11;;;;;;;;;76.75;64.75;;;;;20.30;47.54;95734.38;4987448;28;9430;-66
2022/12/28 02:43:39;;;;;;;;;78.25;64.25;;;;;20.28;47.50;95729.25;4988847;28;9437;-66
2022/12/28 02:52:41;;;;;;;;;67.25;58.25;;;;;20.30;47.71;95707.47;5010528;28;9812;-66
2022/12/28 02:58:43;;;;;;;;;74.25;61.50;;;;;20.31;47.81;95711.00;5011044;28;8856;-66
2022/12/28 03:01:16;;;;;;;;;72.25;61.25;;;;;20.30;48.02;95701.94;5006142;28;9382;-66
2022/12/28 03:04:08;;;;;;;;;76.00;62.25;;;;;20.33;48.25;95694.75;4988163;28;9637;-66
2022/12/28 03:10:02;;;;;;;;;84.75;68.25;;;;;20.33;48.45;95689.22;4990842;28;10049;-66
2022/12/28 03:12:39;;;;;;;;;75.50;63.00;;;;;20.32;48.28;95684.88;5005500;28;10479;-66
2022/12/28 03:15:28;;;;;;;;;78.00;65.00;;;;;20.33;48.35;95683.69;5007461;28;10683;-66
2022/12/28 03:31:59;;;;;;;;;69.75;59.50;;;;;20.30;47.79;95671.47;5003792;28;11713;-66
2022/12/28 03:34:27;;;;;;;;;71.00;60.00;;;;;20.32;47.57;95669.06;5010850;28;9273;-66
2022/12/28 03:37:19;;;;;;;;;66.50;57.00;;;;;20.31;47.40;95664.72;4988611;28;9926;-66
2022/12/28 03:40:01;;;;;;;;;69.50;59.50;;;;;20.32;47.34;95671.03;5007281;28;9876;-66
2022/12/28 03:45:25;;;;;;;;;75.00;62.25;;;;;20.31;47.24;95664.72;5011242;28;10016;-65
2022/12/28 03:48:15;;;;;;;;;76.00;63.00;;;;;20.33;47.17;95665.09;4997555;28;9465;-65
2022/12/28 03:50:45;;;;;;;;;76.25;64.00;;;;;20.34;47.30;95663.91;5005567;28;9444;-66
2022/12/28 03:53:23;;;;;;;;;71.50;61.50;;;;;20.32;47.12;95657.19;4988716;28;9632;-66
2022/12/28 03:56:14;;;;;;;;;78.50;64.00;;;;;20.30;47.04;95662.38;4988663;28;9551;-66
2022/12/28 03:58:42;;;;;;;;;68.50;58.50;;;;;20.30;47.10;95662.38;5007219;28;9493;-65
2022/12/28 04:01:10;;;;;;;;;76.25;64.25;;;;;20.29;46.99;95663.59;4992599;28;8847;-66
2022/12/28 04:03:39;;;;;;;;;75.00;64.00;;;;;20.29;46.82;95656.06;4988355;28;9905;-66
2022/12/28 04:06:07;;;;;;;;;67.00;57.75;;;;;20.31;46.76;95658.38;5006773;28;9315;-66
2022/12/28 04:08:34;;;;;;;;;74.00;61.33;;;;;20.27;46.70;95663.22;4990499;28;10571;-65
2022/12/28 04:11:03;;;;;;;;;75.50;63.25;;;;;20.29;46.70;95666.34;4990747;28;9543;-66
2022/12/28 04:13:31;;;;;;;;;74.33;62.33;;;;;20.30;46.45;95654.09;5006985;28;9562;-66
2022/12/28 04:16:09;;;;;;;;;75.33;62.00;;;;;20.30;46.34;95663.16;4986765;28;9255;-67
2022/12/28 04:18:37;;;;;;;;;75.75;63.50;;;;;20.27;46.54;95654.91;4988418;28;11086;-66
2022/12/28 04:21:04;;;;;;;;;68.50;57.25;;;;;20.29;46.11;95658.81;5007871;28;11655;-66
2022/12/28 04:23:31;;;;;;;;;76.25;64.00;;;;;20.28;46.35;95650.94;4989142;28;9436;-66
2022/12/28 04:26:24;;;;;;;;;70.00;59.33;;;;;20.28;46.36;95657.25;4999321;28;9404;-67
2022/12/28 04:28:52;;;;;;;;;75.50;62.25;;;;;20.26;46.34;95651.34;4989536;28;9147;-66
2022/12/28 04:31:35;;;;;;;;;74.25;62.50;;;;;20.24;46.30;95654.56;4987125;28;10899;-67
2022/12/28 04:34:06;;;;;;;;;66.25;57.00;;;;;20.27;46.34;95657.69;4997813;28;9403;-66
2022/12/28 04:36:38;;;;;;;;;76.00;64.00;;;;;20.26;46.27;95650.59;4999631;28;9561;-66
2022/12/28 04:39:09;;;;;;;;;73.00;63.00;;;;;20.25;46.13;95658.13;4986053;28;9732;-66
2022/12/28 04:41:36;;;;;;;;;76.25;64.00;;;;;20.22;46.18;95654.19;5006792;28;10723;-66
2022/12/28 04:44:03;;;;;;;;;78.50;66.25;;;;;20.27;46.06;95666.00;5007115;28;10214;-66
2022/12/28 04:46:30;;;;;;;;;75.00;63.00;;;;;20.22;46.04;95659.72;5006848;28;9728;-67
2022/12/28 04:48:57;;;;;;;;;76.25;63.00;;;;;20.21;46.07;95652.66;5009282;28;9535;-66
2022/12/28 04:51:25;;;;;;;;;68.00;58.25;;;;;20.23;46.24;95646.69;5004329;28;9528;-66
2022/12/28 04:53:54;;;;;;;;;73.25;61.75;;;;;20.20;46.36;95648.31;5005730;28;9243;-67
2022/12/28 04:56:22;;;;;;;;;72.00;61.25;;;;;20.23;45.91;95641.91;5006501;28;9417;-66
2022/12/28 04:58:57;;;;;;;;;69.00;59.00;;;;;20.24;45.82;95649.00;5003684;28;9593;-67
2022/12/28 05:01:25;;;;;;;;;66.00;56.25;;;;;20.21;46.16;95649.09;5007396;28;9610;-66
2022/12/28 05:03:54;;;;;;;;;71.25;61.00;;;;;20.18;46.08;95650.72;5006981;28;8840;-66
2022/12/28 05:06:26;;;;;;;;;74.00;62.33;;;;;20.20;46.01;95656.63;5006492;28;9320;-66
2022/12/28 05:08:55;;;;;;;;;79.25;66.00;;;;;20.21;45.98;95655.41;5005713;28;9521;-66
2022/12/28 05:11:25;;;;;;;;;68.25;59.00;;;;;20.20;46.02;95656.63;5002451;28;10047;-66
2022/12/28 05:13:52;;;;;;;;;76.25;64.25;;;;;20.20;45.96;95655.81;5006296;28;10931;-66
2022/12/28 05:16:21;;;;;;;;;72.75;61.75;;;;;20.20;45.82;95653.84;5002466;28;9571;-66
2022/12/28 05:18:48;;;;;;;;;69.75;60.50;;;;;20.21;45.84;95657.38;5007776;28;9889;-66
2022/12/28 05:21:16;;;;;;;;;64.25;55.00;;;;;20.21;45.79;95655.41;5003783;28;9042;-66
2022/12/28 05:23:43;;;;;;;;;67.00;57.25;;;;;20.20;45.97;95661.34;5003397;28;10552;-67
2022/12/28 05:26:15;;;;;;;;;75.50;63.25;;;;;20.21;45.71;95657.38;5005238;28;11972;-66
2022/12/28 05:28:42;;;;;;;;;67.25;58.00;;;;;20.21;45.74;95654.63;5004465;28;11690;-66
2022/12/28 05:31:12;;;;;;;;;71.75;60.25;;;;;20.19;45.61;95657.03;4989747;28;8852;-66
2022/12/28 05:33:40;;;;;;;;;67.00;57.00;;;;;20.20;45.60;95653.06;5004399;28;10286;-67
2022/12/28 05:36:18;;;;;;;;;68.50;57.75;;;;;20.20;45.53;95658.59;5007350;28;9218;-66
2022/12/28 05:38:46;;;;;;;;;76.25;64.00;;;;;20.20;45.77;95662.16;5002229;28;9179;-66
2022/12/28 05:41:14;;;;;;;;;68.00;58.00;;;;;20.18;45.75;95656.25;5005919;28;9519;-66
2022/12/28 05:43:42;;;;;;;;;67.25;57.75;;;;;20.22;45.60;95656.97;5005999;28;9674;-66
2022/12/28 05:46:11;;;;;;;;;77.00;63.50;;;;;20.22;45.08;95651.41;4987645;28;8844;-66
2022/12/28 05:48:40;;;;;;;;;69.25;59.25;;;;;20.23;45.00;95643.91;5006433;28;9402;-67
2022/12/28 05:51:10;;;;;;;;;78.00;65.25;;;;;20.23;44.72;95641.91;5002871;28;9495;-66
2022/12/28 05:53:37;;;;;;;;;70.00;59.00;;;;;20.26;44.51;95648.59;5006575;28;9513;-66
2022/12/28 05:56:06;;;;;;;;;71.50;60.50;;;;;20.25;44.92;95649.81;4987666;28;9454;-67
2022/12/28 05:58:41;;;;;;;;;78.25;65.50;;;;;20.24;44.75;95645.47;5005644;28;9401;-67
2022/12/28 06:01:10;;;;;;;;;68.00;58.25;;;;;20.23;44.53;95643.91;5008261;28;9540;-67
2022/12/28 06:03:38;;;;;;;;;77.25;64.25;;;;;20.22;44.51;95634.81;5005492;28;9443;-66
2022/12/28 06:06:07;;;;;;;;;75.00;62.25;;;;;20.24;44.45;95639.94;5005148;28;9800;-67
2022/12/28 06:08:34;;;;;;;;;70.50;60.00;;;;;20.24;44.46;95639.94;5004845;28;9629;-66
2022/12/28 06:11:04;;;;;;;;;75.00;63.00;;;;;20.23;44.36;95635.59;5005713;28;9442;-66
2022/12/28 06:13:32;;;;;;;;;79.00;66.00;;;;;20.21;44.49;95638.00;5005367;28;11100;-67
2022/12/28 06:16:06;;;;;;;;;76.25;64.25;;;;;20.22;44.32;95642.34;5008983;28;9542;-66
2022/12/28 06:18:34;;;;;;;;;71.75;60.25;;;;;20.24;44.19;95639.94;5008932;28;9402;-67
2022/12/28 06:21:15;;;;;;;;;70.75;60.00;;;;;20.20;44.29;95645.53;5010172;28;9090;-66
2022/12/28 06:23:43;;;;;;;;;70.00;58.25;;;;;20.21;43.94;95649.88;5010960;28;9250;-66
2022/12/28 06:26:17;;;;;;;;;67.25;58.00;;;;;20.20;44.29;95653.06;5007448;28;10153;-66
2022/12/28 06:28:44;;;;;;;;;70.50;59.75;;;;;20.19;44.29;95643.19;5009443;28;10337;-67
2022/12/28 06:31:21;;;;;;;;;77.25;64.00;;;;;20.19;44.15;95651.47;5011661;28;8824;-66
2022/12/28 06:33:49;;;;;;;;;76.00;64.00;;;;;20.21;44.09;95649.09;5009124;28;9607;-66
2022/12/28 06:36:26;;;;;;;;;69.75;59.50;;;;;20.20;43.89;95650.28;4998159;28;10016;-66
2022/12/28 06:38:55;;;;;;;;;80.00;66.25;;;;;20.21;43.85;95649.09;4992105;28;9442;-66
2022/12/28 06:41:23;;;;;;;;;71.00;60.25;;;;;20.21;43.80;95652.66;4992201;28;10091;-66
2022/12/28 06:43:51;;;;;;;;;76.50;64.75;;;;;20.23;43.52;95646.69;4990178;28;9242;-66
2022/12/28 06:46:20;;;;;;;;;91.00;75.25;;;;;20.21;43.78;95643.53;4991749;28;8847;-66
2022/12/28 06:48:49;;;;;;;;;75.75;63.75;;;;;20.23;43.50;95638.38;4991681;28;11494;-66
2022/12/28 06:51:17;;;;;;;;;71.00;60.00;;;;;20.24;43.51;95648.25;4993430;28;9471;-66
2022/12/28 06:53:45;;;;;;;;;77.50;65.00;;;;;20.26;43.37;95642.28;4990988;28;9191;-66
2022/12/28 06:56:24;;;;;;;;;71.50;60.25;;;;;20.25;43.49;95647.03;4991395;28;9737;-66
2022/12/28 06:58:52;;;;;;;;;70.00;60.00;;;;;20.24;43.30;95642.72;4991015;28;9787;-66
2022/12/28 07:01:38;;;;;;;;;80.75;68.00;;;;;20.24;43.41;95651.78;4988381;28;8828;-67
2022/12/28 07:04:06;;;;;;;;;71.50;60.50;;;;;20.26;43.38;95650.59;4993392;28;9965;-66
2022/12/28 07:06:36;;;;;;;;;77.67;64.33;;;;;20.24;43.36;95651.78;4988303;28;10634;-66
2022/12/28 07:09:06;;;;;;;;;80.00;66.00;;;;;20.26;43.24;95654.13;4985150;28;10513;-66
2022/12/28 07:11:34;;;;;;;;;72.75;61.25;;;;;20.22;43.25;95654.19;4991366;28;9542;-66
2022/12/28 07:14:01;;;;;;;;;72.50;60.25;;;;;20.24;43.26;95656.56;4992186;28;9563;-66
2022/12/28 07:16:29;;;;;;;;;77.50;64.00;;;;;20.23;43.03;95655.75;4989804;28;9645;-67
2022/12/28 07:18:58;;;;;;;;;73.50;61.50;;;;;20.22;43.38;95653.41;4991794;28;9766;-68
2022/12/28 07:21:28;;;;;;;;;77.75;64.25;;;;;20.21;43.32;95660.16;4987794;28;10340;-66
2022/12/28 07:23:56;;;;;;;;;76.00;64.75;;;;;20.19;43.50;95657.81;4989711;28;10259;-66
2022/12/28 07:26:26;;;;;;;;;76.25;64.00;;;;;20.20;44.13;95647.50;4985657;28;11480;-66
2022/12/28 07:28:55;;;;;;;;;72.00;61.25;;;;;20.25;44.04;95652.59;4989957;28;9942;-66
2022/12/28 07:31:25;;;;;;;;;78.25;65.25;;;;;20.32;44.28;95659.97;4989766;28;8844;-65
2022/12/28 07:33:54;;;;;;;;;69.50;59.25;;;;;20.37;44.30;95653.94;4986093;28;10944;-65
2022/12/28 07:36:23;;;;;;;;;78.50;66.25;;;;;20.42;44.28;95659.00;4999704;28;8915;-65
2022/12/28 07:38:51;;;;;;;;;72.50;60.25;;;;;20.44;46.30;95661.31;5007921;28;10026;-65
2022/12/28 07:41:20;;;;;;;;;77.25;64.75;;;;;20.47;44.60;95663.25;5005252;28;8864;-66
2022/12/28 07:43:48;;;;;;;;;80.50;67.50;;;;;20.47;44.68;95666.78;5005506;28;9102;-66
2022/12/28 07:46:20;;;;;;;;;77.50;65.50;;;;;20.48;44.63;95676.66;4990739;28;11136;-66
2022/12/28 07:48:48;;;;;;;;;72.00;61.00;;;;;20.46;44.66;95667.22;5007375;28;8994;-66
2022/12/28 07:51:18;;;;;;;;;69.25;59.00;;;;;20.51;46.78;95675.84;5001585;28;9171;-66
2022/12/28 07:53:47;;;;;;;;;76.33;64.00;;;;;20.42;46.29;95670.06;5001458;28;10139;-64
2022/12/28 07:56:15;;;;;;;;;70.50;58.75;;;;;20.57;45.76;95670.59;4999769;28;9451;-63
2022/12/28 07:58:44;;;;;;;;;77.25;65.25;;;;;20.68;45.57;95671.19;4996683;28;8848;-64
2022/12/28 08:01:12;;;;;;;;;69.50;60.00;;;;;20.78;45.52;95674.16;4987662;28;9333;-64
2022/12/28 08:03:40;;;;;;;;;79.50;65.25;;;;;20.78;45.41;95676.94;4998963;28;8855;-64
2022/12/28 08:06:19;;;;;;;;;77.75;66.00;;;;;20.82;45.61;95678.44;4998731;28;9680;-64
2022/12/28 08:08:47;;;;;;;;;68.25;59.00;;;;;20.83;45.29;95679.22;5000503;28;9018;-64
2022/12/28 08:11:17;;;;;;;;;88.00;73.00;;;;;20.80;46.41;95680.88;5000087;28;9627;-63
2022/12/28 08:13:46;;;;;;;;;76.00;63.75;;;;;20.82;45.21;95661.81;4998046;28;11570;-64
2022/12/28 08:16:17;;;;;;;;;77.25;65.25;;;;;20.77;45.46;95667.09;4999114;28;9609;-67
2022/12/28 08:18:44;;;;;;;;;80.75;66.25;;;;;20.75;47.05;95667.50;5000238;28;10083;-67
2022/12/28 08:21:17;;;;;;;;;69.00;59.25;;;;;20.77;49.10;95661.53;4998764;28;9977;-65
2022/12/28 08:23:47;;;;;;;;;74.00;63.00;;;;;20.81;48.05;95663.00;4999480;28;9709;-64
2022/12/28 08:26:20;;;;;;;;;70.75;60.25;;;;;20.85;46.98;95651.88;4997334;28;9357;-65
2022/12/28 08:28:49;;;;;;;;;75.50;63.50;;;;;20.88;46.57;95653.00;4997974;28;8889;-65
2022/12/28 08:31:20;;;;;;;;;76.75;65.25;;;;;20.88;46.29;95658.56;5001499;28;9964;-66
2022/12/28 08:33:47;;;;;;;;;71.25;59.25;;;;;20.88;46.12;95661.31;4999987;28;9255;-65
2022/12/28 08:36:15;;;;;;;;;77.25;64.00;;;;;20.85;46.38;95658.19;4995939;28;8862;-65
2022/12/28 08:38:44;;;;;;;;;74.00;63.25;;;;;20.83;46.21;95655.06;4997676;28;9564;-65
2022/12/28 08:41:14;;;;;;;;;76.00;63.33;;;;;20.84;46.01;95661.41;4999867;28;8890;-65
2022/12/28 08:43:40;;;;;;;;;73.75;62.00;;;;;20.73;47.69;95652.47;5000520;28;9332;-67
2022/12/28 08:46:16;;;;;;;;;70.75;58.75;;;;;20.78;47.46;95661.09;4995388;28;8916;-67
2022/12/28 08:48:45;;;;;;;;;69.25;59.00;;;;;20.86;46.85;95665.31;5000003;28;8848;-68
2022/12/28 08:51:24;;;;;;;;;69.75;58.25;;;;;20.89;46.87;95665.66;4997013;28;8922;-68
2022/12/28 08:53:52;;;;;;;;;74.75;63.00;;;;;20.90;46.69;95659.69;5000299;28;8930;-67
2022/12/28 08:56:28;;;;;;;;;76.50;63.25;;;;;20.86;46.71;95665.31;4998236;28;9493;-67
2022/12/28 08:58:56;;;;;;;;;77.00;64.25;;;;;20.86;46.52;95667.28;4998766;28;9555;-67
2022/12/28 09:01:26;;;;;;;;;76.75;64.00;;;;;20.84;46.57;95667.72;5001864;28;9541;-67
2022/12/28 09:03:55;;;;;;;;;75.00;63.00;;;;;20.81;46.46;95676.88;4997838;28;9545;-67
2022/12/28 09:06:36;;;;;;;;;79.75;66.00;;;;;20.81;46.71;95676.09;4996151;28;9539;-68
2022/12/28 09:09:05;;;;;;;;;69.00;58.00;;;;;20.78;46.59;95669.44;4999186;28;10665;-68
2022/12/28 09:11:34;;;;;;;;;76.75;63.00;;;;;20.77;46.87;95680.94;5000100;28;8844;-67
2022/12/28 09:14:04;;;;;;;;;77.50;64.75;;;;;20.73;46.44;95669.09;5000387;28;9825;-67
2022/12/28 09:16:31;;;;;;;;;77.25;65.00;;;;;20.73;46.36;95669.09;4998171;28;9449;-66
2022/12/28 09:18:59;;;;;;;;;65.25;55.00;;;;;20.68;46.45;95671.19;4998086;28;9834;-67
2022/12/28 09:21:29;;;;;;;;;78.00;64.00;;;;;20.67;46.93;95671.59;4992462;28;8863;-67
2022/12/28 09:23:57;;;;;;;;;76.00;63.75;;;;;20.66;46.36;95672.78;4997005;28;9736;-68
2022/12/28 09:26:31;;;;;;;;;75.00;63.75;;;;;20.66;46.47;95667.25;5000129;28;9612;-70
2022/12/28 09:29:01;;;;;;;;;75.67;63.00;;;;;20.68;44.86;95673.16;4995983;28;9312;-67
2022/12/28 09:31:30;;;;;;;;;78.50;66.25;;;;;20.65;46.30;95682.28;4999408;28;9844;-66
2022/12/28 09:36:46;;;;;;;;;69.00;57.00;;;;;20.61;46.51;95685.13;5003814;28;8832;-66
2022/12/28 09:39:23;;;;;;;;;77.25;65.25;;;;;20.59;46.28;95675.69;5006822;28;8848;-69
2022/12/28 09:41:53;;;;;;;;;76.25;64.25;;;;;20.58;47.32;95686.00;4984800;28;9799;-67
2022/12/28 09:44:29;;;;;;;;;68.00;58.25;;;;;20.58;46.65;95685.22;4983408;28;9693;-68
2022/12/28 09:47:16;;;;;;;;;76.25;63.25;;;;;20.58;46.78;95682.44;5000621;28;8888;-66
2022/12/28 09:50:10;;;;;;;;;76.25;63.50;;;;;20.54;47.15;95676.97;5004156;28;10410;-66
2022/12/28 09:52:59;;;;;;;;;76.25;63.25;;;;;20.66;49.42;95681.91;5001190;28;9482;-64
2022/12/28 09:55:27;;;;;;;;;77.00;63.25;;;;;20.76;49.42;95677.38;5001516;28;9463;-64
2022/12/28 09:57:57;;;;;;;;;71.25;59.50;;;;;20.86;49.92;95683.91;4992295;28;9664;-65
2022/12/28 10:00:30;;;;;;;;;76.25;63.25;;;;;20.90;49.10;95678.31;4998302;28;8863;-66
2022/12/28 10:03:04;;;;;;;;;76.00;64.00;;;;;20.81;49.13;95682.41;4996642;28;10615;-62
2022/12/28 10:05:32;;;;;;;;;79.75;67.00;;;;;20.85;49.30;95674.81;4995583;28;9738;-60
2022/12/28 10:07:58;;;;;;;;;71.00;60.25;;;;;20.86;49.79;95684.69;4995608;28;10820;-60
2022/12/28 10:10:27;;;;;;;;;71.00;60.00;;;;;20.83;50.06;95685.53;4998625;28;8848;-61
2022/12/28 10:12:55;;;;;;;;;78.00;64.25;;;;;20.85;50.21;95691.44;4996849;28;8878;-60
2022/12/28 10:15:26;;;;;;;;;78.00;65.25;;;;;20.83;50.37;95685.53;4996758;28;10409;-61
2022/12/28 10:17:53;;;;;;;;;75.75;63.00;;;;;20.84;50.74;95678.03;4996956;28;10145;-62
2022/12/28 10:20:22;;;;;;;;;81.00;66.50;;;;;20.82;50.77;95683.97;4997781;28;9767;-62
2022/12/28 10:22:55;;;;;;;;;78.00;65.75;;;;;20.80;50.83;95689.19;4996942;28;10132;-60
2022/12/28 10:25:25;;;;;;;;;71.00;60.25;;;;;20.77;51.17;95681.72;4999363;28;8851;-61
2022/12/28 10:27:52;;;;;;;;;68.25;59.00;;;;;20.75;51.19;95686.13;4998855;28;8816;-60
2022/12/28 10:30:25;;;;;;;;;74.25;61.25;;;;;20.73;51.38;95683.75;4998531;28;8853;-62
2022/12/28 10:32:57;;;;;;;;;75.50;63.75;;;;;20.69;51.39;95680.25;4994383;28;8899;-61
2022/12/28 10:35:40;;;;;;;;;78.00;65.75;;;;;20.66;51.65;95683.88;4995669;28;8856;-62
2022/12/28 10:38:20;;;;;;;;;77.25;65.25;;;;;20.64;51.51;95680.75;4998238;28;9945;-61
2022/12/28 10:41:12;;;;;;;;;78.50;66.00;;;;;20.63;51.26;95673.66;4996666;28;9791;-64
2022/12/28 10:43:41;;;;;;;;;72.00;59.75;;;;;20.60;51.20;95661.41;4999390;28;10265;-64
2022/12/28 10:46:18;;;;;;;;;77.00;65.00;;;;;20.58;51.12;95660.28;4999960;28;8836;-63
2022/12/28 10:48:51;;;;;;;;;77.50;64.25;;;;;20.56;51.09;95660.72;4994465;28;8937;-63
2022/12/28 10:51:23;;;;;;;;;80.75;66.25;;;;;20.53;50.97;95658.78;4998261;28;9654;-65
2022/12/28 10:53:55;;;;;;;;;79.75;65.75;;;;;20.59;51.59;95662.66;4998251;28;10120;-81
2022/12/28 10:56:31;;;;;;;;;89.00;71.75;;;;;20.67;47.25;95654.97;4994448;28;8847;-79
2022/12/28 10:59:10;;;;;;;;;85.00;68.00;;;;;20.28;41.90;95650.94;4979969;28;10799;-77
2022/12/28 11:01:39;;;;;;;;;91.25;74.75;;;;;19.93;42.13;95645.59;4997673;28;8921;-70
2022/12/28 11:04:18;;;;;;;;;88.67;70.67;;;;;19.75;44.56;95645.88;4997531;28;10940;-73
2022/12/28 11:07:00;;;;;;;;;84.00;68.50;;;;;19.70;45.26;95646.34;4998162;28;9083;-77
2022/12/28 11:09:33;;;;;;;;;80.25;66.00;;;;;19.69;45.26;95637.25;4996809;28;10323;-75
2022/12/28 11:12:22;;;;;;;;;82.50;67.50;;;;;19.73;45.08;95642.72;4994827;28;8863;-73
2022/12/28 11:14:51;;;;;;;;;76.75;64.00;;;;;19.71;45.15;95639.59;4997924;28;10334;-74
2022/12/28 11:17:23;;;;;;;;;73.25;62.25;;;;;19.72;45.06;95636.44;4997263;28;8828;-73
2022/12/28 11:20:18;;;;;;;;;84.75;69.75;;;;;19.74;42.78;95638.78;4997344;28;8884;-75
2022/12/28 11:22:46;;;;;;;;;77.50;64.50;;;;;19.68;42.93;95630.16;4995080;28;10253;-79
2022/12/28 11:25:18;;;;;;;;;84.00;70.75;;;;;19.83;43.94;95619.66;5000040;28;8854;-80
2022/12/28 11:27:46;;;;;;;;;81.50;67.50;;;;;19.93;44.15;95612.38;5000052;28;8878;-80
2022/12/28 11:30:17;;;;;;;;;85.75;69.50;;;;;19.98;44.19;95606.38;4984622;28;10148;-85
2022/12/28 11:32:50;;;;;;;;;86.25;70.25;;;;;19.97;42.79;95601.25;4998247;28;10936;-73
2022/12/28 11:35:21;;;;;;;;;78.50;64.75;;;;;19.93;41.31;95606.84;4996452;28;10249;-79
2022/12/28 11:37:54;;;;;;;;;81.00;67.25;;;;;19.91;42.08;95601.75;5001471;28;8860;-78
2022/12/28 11:40:43;;;;;;;;;85.00;69.00;;;;;20.02;38.69;95586.94;5001265;28;10128;-78
2022/12/28 11:43:38;;;;;;;;;80.00;65.00;;;;;;;;5001742;28;8849;-77
2022/12/28 11:46:28;;;;;;;;;85.25;70.00;;;;;20.01;36.63;95579.84;4997534;28;8872;-76
2022/12/28 11:49:26;;;;;;;;;86.50;71.25;;;;;19.86;36.67;95580.13;4976922;28;9992;-78
2022/12/28 11:52:15;;;;;;;;;81.50;67.25;;;;;19.71;36.84;95571.25;4970241;28;8836;-79
2022/12/28 11:54:56;;;;;;;;;81.67;67.00;;;;;19.42;39.24;95568.94;4999957;28;8844;-74
2022/12/28 11:57:39;;;;;;;;;79.50;65.00;;;;;19.37;40.90;95563.09;4999127;28;9094;-78
2022/12/28 12:00:18;;;;;;;;;81.25;67.50;;;;;19.37;42.50;95558.38;4998474;28;8873;-79
2022/12/28 12:03:00;;;;;;;;;78.75;66.00;;;;;19.42;43.69;95552.34;5001572;28;10416;-84
2022/12/28 12:05:36;;;;;;;;;80.75;67.75;;;;;19.50;44.42;95544.72;5002000;28;8870;-73
2022/12/28 12:08:14;;;;;;;;;89.75;73.25;;;;;19.55;45.22;95537.94;5004405;28;10140;-78
2022/12/28 12:10:44;;;;;;;;;83.50;68.50;;;;;19.60;45.97;95532.72;4986146;28;10922;-73
2022/12/28 12:13:26;;;;;;;;;83.00;68.00;;;;;19.66;46.63;95529.44;4982694;28;8855;-72
2022/12/28 12:16:05;;;;;;;;;77.00;64.50;;;;;19.65;44.71;95517.63;5003829;28;10045;-73
2022/12/28 12:18:45;;;;;;;;;79.75;66.25;;;;;19.66;41.15;95518.38;5002038;28;8878;-74
2022/12/28 12:21:27;;;;;;;;;82.75;68.50;;;;;19.67;42.75;95517.94;5004184;28;10347;-74